Hlavní strana
METAR-TAF:

METAR-TAF

Letiště :

Dayton, Ohio, Spojené státy americké

zeměpisná šířka: 39-35-20N, zeměpisná délka: 084-13-29W, výška: 292 m

Aktuální stav počasí

Zpráva byla vytvořena před 48 minutami, v 07:53 UTC
Severní vítr 5 kt
Teplota -7°C
Vlhkost vzduchu 73%
Tlak 1035 hPa
Viditelnost: 16.1 km
Jasno

METAR: KMGY 210753Z AUTO 35005KT 10SM CLR M07/M11 A3056 RMK AO2 SLP361 T10721111

Čas: 03:41 (08:41 UTC)


TAF: chybějící

Stav a předpovědi počasí z více než 4 000 letišť (zprávy METAR a TAF).

Červené a žluté tečky na mapě představují dostupné meteorologické stanice.

Když kurzor umístíte na tečku, zobrazí se název stanice.

Pak kliknutím zobrazíte stav a předpověď počasí.

Chcete-li změnit mapu, kliknutím na zelené tlačítko se znaménkem +mapu přiblížíte, kliknutím na zelené tlačítko se znaménkem – mapu oddálíte a kliknutím na zelené šipky přejdete na sousední mapy.


METAR-TAF: